Time;durP1;ratioP1;P1;durP2;ratioP2;P2;SDS_P1;SDS_P2;PMS_P1;PMS_P2;Temp;Humidity;BMP_temperature;BMP_pressure;BME280_temperature;BME280_humidity;BME280_pressure;Samples;Min_cycle;Max_cycle;Signal;HPM_P1;HPM_P2
2022/07/11 00:01:43;;;;;;;0.50;0.40;;;;;;;17.91;54.96;101978.22;5013511;27;97298;-50
2022/07/11 00:04:09;;;;;;;0.83;0.50;;;;;;;17.92;55.21;101982.53;5012149;27;97520;-50
2022/07/11 00:06:34;;;;;;;2.20;0.60;;;;;;;17.94;55.21;101984.78;5016868;27;100128;-50
2022/07/11 00:09:00;;;;;;;0.50;0.40;;;;;;;17.95;55.35;101967.56;5021686;27;96722;-51
2022/07/11 00:11:25;;;;;;;2.00;0.50;;;;;;;17.95;55.35;101975.16;5024937;27;97151;-50
2022/07/11 00:13:51;;;;;;;1.63;0.50;;;;;;;17.92;55.37;101973.41;5026887;27;97426;-50
2022/07/11 00:16:16;;;;;;;0.50;0.50;;;;;;;17.90;55.59;101976.72;5024792;27;97260;-49
2022/07/11 00:18:42;;;;;;;0.50;0.50;;;;;;;17.90;55.56;101970.38;5028457;27;98331;-51
2022/07/11 00:21:07;;;;;;;1.00;0.47;;;;;;;17.89;55.66;101972.38;5025541;27;97159;-50
2022/07/11 00:23:32;;;;;;;0.53;0.50;;;;;;;17.90;55.58;101971.13;5026051;27;97295;-50
2022/07/11 00:25:58;;;;;;;1.07;0.67;;;;;;;17.93;55.70;101967.31;5027773;27;96818;-50
2022/07/11 00:28:23;;;;;;;0.93;0.70;;;;;;;17.93;55.64;101966.56;5028845;27;96839;-51
2022/07/11 00:30:48;;;;;;;0.77;0.60;;;;;;;17.89;55.66;101969.59;5027208;27;97357;-51
2022/07/11 00:33:14;;;;;;;1.10;0.50;;;;;;;17.95;55.77;101961.25;5027495;27;97413;-51
2022/07/11 00:35:39;;;;;;;0.87;0.50;;;;;;;17.96;55.84;101963.50;5025333;27;98457;-50
2022/07/11 00:38:04;;;;;;;0.70;0.70;;;;;;;17.96;55.87;101963.50;5022779;27;96995;-50
2022/07/11 00:40:30;;;;;;;0.63;0.50;;;;;;;17.95;55.76;101961.97;5026454;27;96868;-50
2022/07/11 00:42:55;;;;;;;0.80;0.60;;;;;;;17.94;55.83;101957.69;5026367;27;98687;-50
2022/07/11 00:45:21;;;;;;;1.17;0.67;;;;;;;17.92;55.75;101963.03;5026491;27;97019;-51
2022/07/11 00:47:46;;;;;;;0.60;0.60;;;;;;;17.89;55.85;101950.13;5025874;27;97048;-52
2022/07/11 00:50:13;;;;;;;0.70;0.53;;;;;;;17.87;55.96;101965.81;5028734;27;97359;-51
2022/07/11 00:52:40;;;;;;;1.00;0.73;;;;;;;17.84;56.05;101962.03;5027678;27;103106;-50
2022/07/11 00:55:07;;;;;;;0.80;0.60;;;;;;;17.80;56.01;101961.53;5026432;27;97143;-52
2022/07/11 00:57:34;;;;;;;0.50;0.40;;;;;;;17.77;56.18;101959.03;5027568;27;97302;-50
2022/07/11 00:59:59;;;;;;;0.70;0.53;;;;;;;17.70;56.30;101954.75;5027018;27;97391;-50
2022/07/11 01:02:25;;;;;;;0.93;0.63;;;;;;;17.63;56.43;101960.06;5023532;27;97315;-51
2022/07/11 01:04:50;;;;;;;0.70;0.60;;;;;;;17.59;56.42;101957.53;5028116;27;96736;-51
2022/07/11 01:07:15;;;;;;;0.53;0.40;;;;;;;17.61;56.54;101957.03;5025727;27;97770;-50
2022/07/11 01:09:41;;;;;;;0.60;0.60;;;;;;;17.63;56.65;101946.16;5025674;27;96995;-51
2022/07/11 01:12:07;;;;;;;1.67;0.60;;;;;;;17.64;56.49;101942.88;5025794;27;97426;-52
2022/07/11 01:14:32;;;;;;;1.50;0.60;;;;;;;17.66;56.47;101953.47;5025608;27;97360;-51
2022/07/11 01:16:58;;;;;;;0.60;0.50;;;;;;;17.66;56.39;101948.69;5025038;27;97047;-51
2022/07/11 01:19:23;;;;;;;0.83;0.60;;;;;;;17.67;56.42;101941.09;5024284;27;97021;-51
2022/07/11 01:21:51;;;;;;;1.00;0.67;;;;;;;17.64;56.59;101942.88;5026664;27;96937;-50
2022/07/11 01:24:17;;;;;;;0.80;0.60;;;;;;;17.60;56.67;101944.41;5027064;27;97085;-50
2022/07/11 01:26:43;;;;;;;0.60;0.60;;;;;;;17.61;56.73;101949.44;5026290;27;97421;-50
2022/07/11 01:29:11;;;;;;;1.00;0.43;;;;;;;17.60;56.67;101947.19;5026787;27;97481;-50
2022/07/11 01:31:41;;;;;;;0.80;0.47;;;;;;;17.58;56.95;101944.88;5027105;27;96863;-51
2022/07/11 01:34:07;;;;;;;0.70;0.63;;;;;;;17.55;56.85;101945.94;5025377;27;97106;-51
2022/07/11 01:36:32;;;;;;;0.60;0.50;;;;;;;17.53;56.68;101942.91;5023157;27;104677;-51
2022/07/11 01:38:58;;;;;;;1.13;0.60;;;;;;;17.52;56.87;101955.28;5023502;27;97275;-50
2022/07/11 01:41:24;;;;;;;1.00;0.73;;;;;;;17.51;56.94;101945.44;5025534;27;97741;-50
2022/07/11 01:43:49;;;;;;;1.30;0.67;;;;;;;17.53;57.07;101936.56;5024353;27;97051;-51
2022/07/11 01:46:16;;;;;;;1.07;0.80;;;;;;;17.54;57.04;101941.63;5025632;27;97149;-50
2022/07/11 01:48:41;;;;;;;0.60;0.50;;;;;;;17.56;57.12;101936.28;5024915;27;97188;-51
2022/07/11 01:51:07;;;;;;;0.70;0.60;;;;;;;17.57;57.02;101937.81;5024930;27;97276;-51
2022/07/11 01:53:32;;;;;;;0.60;0.50;;;;;;;17.58;57.07;101938.59;5027320;27;98351;-49
2022/07/11 01:55:58;;;;;;;2.40;0.70;;;;;;;17.56;57.05;101944.63;5024893;27;96921;-50
2022/07/11 01:58:23;;;;;;;1.53;0.60;;;;;;;17.59;57.16;101938.06;5027001;27;97293;-51
2022/07/11 02:00:49;;;;;;;0.50;0.40;;;;;;;17.61;57.20;101934.75;5021388;27;97356;-51
2022/07/11 02:03:14;;;;;;;0.70;0.50;;;;;;;17.63;57.07;101938.56;5022083;27;97206;-52
2022/07/11 02:05:39;;;;;;;1.53;0.67;;;;;;;17.61;57.39;101940.34;5025566;27;96910;-50
2022/07/11 02:08:12;;;;;;;1.57;0.73;;;;;;;17.59;57.41;101940.84;5025799;27;96786;-50
2022/07/11 02:10:45;;;;;;;1.80;0.67;;;;;;;17.62;57.35;101931.50;5024866;27;97446;-51
2022/07/11 02:13:12;;;;;;;0.60;0.50;;;;;;;17.65;57.38;101935.25;5024468;27;97128;-50
2022/07/11 02:15:39;;;;;;;1.37;0.60;;;;;;;17.66;57.42;101931.22;5024971;27;97133;-51
2022/07/11 02:18:05;;;;;;;2.70;1.10;;;;;;;17.66;57.49;101931.97;5027200;27;97405;-50
2022/07/11 02:20:30;;;;;;;1.23;0.70;;;;;;;17.66;57.42;101922.88;5024120;27;97407;-50
2022/07/11 02:22:57;;;;;;;0.90;0.73;;;;;;;17.67;57.42;101927.19;5024449;27;96972;-50
2022/07/11 02:25:22;;;;;;;1.73;0.70;;;;;;;17.69;57.49;101928.16;5020659;27;97008;-50
2022/07/11 02:27:48;;;;;;;1.00;0.70;;;;;;;17.72;57.50;101934.72;5023901;27;97338;-53
2022/07/11 02:30:13;;;;;;;2.33;0.77;;;;;;;17.73;57.54;101925.13;5025264;27;98974;-51
2022/07/11 02:32:39;;;;;;;0.97;0.83;;;;;;;17.72;57.48;101923.59;5025157;27;97174;-50
2022/07/11 02:35:05;;;;;;;0.90;0.70;;;;;;;17.75;57.35;101931.69;5026428;27;97159;-50
2022/07/11 02:37:31;;;;;;;3.50;1.00;;;;;;;17.76;57.63;101927.63;5026025;27;96985;-51
2022/07/11 02:39:56;;;;;;;0.87;0.70;;;;;;;17.76;57.54;101929.66;5024527;27;97811;-50
2022/07/11 02:42:22;;;;;;;1.13;0.73;;;;;;;17.73;57.72;101933.47;5026127;27;97147;-50
2022/07/11 02:44:47;;;;;;;0.80;0.80;;;;;;;17.70;57.81;101937.28;5023639;27;96803;-51
2022/07/11 02:47:15;;;;;;;2.10;0.80;;;;;;;17.69;57.72;101939.28;5023949;27;97343;-52
2022/07/11 02:49:41;;;;;;;0.87;0.87;;;;;;;17.69;57.81;101944.84;5015508;27;97396;-50
2022/07/11 02:52:07;;;;;;;0.83;0.83;;;;;;;17.69;57.56;101941.34;5023927;27;97568;-53
2022/07/11 02:54:32;;;;;;;1.20;0.73;;;;;;;17.69;57.68;101944.84;5025896;27;97300;-50
2022/07/11 02:56:57;;;;;;;1.20;1.10;;;;;;;17.71;58.04;101949.94;5024740;27;97228;-50
2022/07/11 02:59:23;;;;;;;0.63;0.63;;;;;;;17.70;57.84;101940.06;5025627;27;97351;-51
2022/07/11 03:01:49;;;;;;;1.00;0.90;;;;;;;17.70;57.96;101934.50;5024958;27;97290;-50
2022/07/11 03:04:15;;;;;;;2.70;0.90;;;;;;;17.70;57.84;101940.81;5022282;27;96865;-50
2022/07/11 03:06:41;;;;;;;2.53;1.00;;;;;;;17.70;57.89;101940.81;5022419;27;96967;-50
2022/07/11 03:09:08;;;;;;;2.10;0.90;;;;;;;17.67;57.98;101946.66;5022139;27;97416;-50
2022/07/11 03:11:33;;;;;;;3.33;1.20;;;;;;;17.65;58.14;101949.16;5020154;27;97145;-49
2022/07/11 03:14:02;;;;;;;1.20;1.17;;;;;;;17.63;58.18;101944.13;5020746;27;96939;-51
2022/07/11 03:16:29;;;;;;;1.73;1.00;;;;;;;17.66;58.12;101945.91;5022383;27;97034;-50
2022/07/11 03:18:56;;;;;;;1.10;0.87;;;;;;;17.67;58.06;101958.53;5024239;27;97322;-51
2022/07/11 03:21:21;;;;;;;1.40;1.00;;;;;;;17.67;58.19;101952.97;5019985;27;97431;-50
2022/07/11 03:23:47;;;;;;;1.10;0.70;;;;;;;17.66;58.24;101945.91;5025052;27;97296;-53
2022/07/11 03:26:12;;;;;;;1.13;0.80;;;;;;;17.65;58.19;101952.72;5033647;27;96992;-50
2022/07/11 03:28:37;;;;;;;1.20;1.00;;;;;;;17.65;58.22;101949.16;5023711;27;98349;-50
2022/07/11 03:31:03;;;;;;;1.43;1.03;;;;;;;17.65;58.30;101957.53;5023129;27;100659;-51
2022/07/11 03:33:29;;;;;;;1.53;0.90;;;;;;;17.66;58.20;101950.69;5022840;27;97160;-50
2022/07/11 03:35:55;;;;;;;2.47;1.17;;;;;;;17.70;58.32;101956.75;5024409;27;96785;-50
2022/07/11 03:38:20;;;;;;;0.80;0.80;;;;;;;17.70;58.21;101954.75;5023067;27;97864;-50
2022/07/11 03:40:47;;;;;;;0.70;0.70;;;;;;;17.73;58.17;101959.28;5024656;27;97124;-51
2022/07/11 03:43:13;;;;;;;3.60;1.10;;;;;;;17.77;58.36;101956.25;5024547;27;97259;-50
2022/07/11 03:45:39;;;;;;;1.13;0.60;;;;;;;17.77;58.43;101962.56;5026477;27;97046;-51
2022/07/11 03:48:05;;;;;;;0.80;0.80;;;;;;;17.77;58.33;101965.34;5028393;27;97253;-50
2022/07/11 03:50:31;;;;;;;1.77;1.10;;;;;;;17.78;58.18;101949.38;5028060;27;97827;-51
2022/07/11 03:52:56;;;;;;;1.50;0.90;;;;;;;17.79;58.28;101951.69;5027839;27;96983;-51
2022/07/11 03:55:22;;;;;;;0.80;0.80;;;;;;;17.83;58.29;101952.16;5020333;27;97124;-51
2022/07/11 03:57:48;;;;;;;1.20;1.20;;;;;;;17.87;58.28;101955.44;5024626;27;97295;-50
2022/07/11 04:00:14;;;;;;;0.80;0.77;;;;;;;17.91;58.40;101952.38;5025476;27;96768;-52
2022/07/11 04:02:39;;;;;;;1.00;0.80;;;;;;;17.93;58.38;101955.44;5027106;27;100881;-51
2022/07/11 04:05:05;;;;;;;0.90;0.90;;;;;;;17.97;58.29;101950.34;5026312;27;97078;-50
2022/07/11 04:07:31;;;;;;;1.87;1.00;;;;;;;18.01;58.32;101961.22;5025984;27;97144;-50
2022/07/11 04:09:56;;;;;;;3.63;1.30;;;;;;;18.06;58.43;101955.63;5026863;27;97041;-51
2022/07/11 04:12:22;;;;;;;1.40;1.27;;;;;;;18.10;58.32;101956.13;5027067;27;97241;-51
2022/07/11 04:14:47;;;;;;;1.13;1.00;;;;;;;18.15;58.40;101952.53;5025246;27;96816;-52
2022/07/11 04:17:13;;;;;;;3.60;1.43;;;;;;;18.19;58.37;101950.25;5026489;27;97270;-50
2022/07/11 04:19:39;;;;;;;1.90;0.87;;;;;;;18.23;58.29;101952.75;5026855;27;97333;-50
2022/07/11 04:22:05;;;;;;;2.17;1.43;;;;;;;18.28;58.44;101949.19;5025334;27;96929;-50
2022/07/11 04:24:30;;;;;;;2.00;1.03;;;;;;;18.31;58.38;101951.69;5026159;27;97154;-50
2022/07/11 04:26:55;;;;;;;3.30;1.40;;;;;;;18.36;58.42;101958.53;5023761;27;97171;-51
2022/07/11 04:29:21;;;;;;;4.20;1.43;;;;;;;18.41;58.27;101946.59;5025176;27;97297;-50
2022/07/11 04:31:47;;;;;;;2.47;1.47;;;;;;;18.43;58.30;101955.97;5025036;27;97039;-50
2022/07/11 04:34:13;;;;;;;2.00;1.60;;;;;;;18.44;58.29;101954.69;5024820;27;97204;-49
2022/07/11 04:36:39;;;;;;;1.67;1.50;;;;;;;18.47;58.38;101952.91;5024294;27;98462;-49
2022/07/11 04:39:04;;;;;;;5.63;1.70;;;;;;;18.48;58.30;101952.38;5027231;27;96811;-52
2022/07/11 04:41:29;;;;;;;2.50;1.27;;;;;;;18.50;58.51;101949.09;5025796;27;96945;-51
2022/07/11 04:43:55;;;;;;;1.50;1.40;;;;;;;18.51;58.44;101951.38;5029270;27;96940;-50
2022/07/11 04:46:20;;;;;;;1.43;1.33;;;;;;;18.53;58.34;101951.59;5027464;27;99298;-51
2022/07/11 04:48:45;;;;;;;1.53;1.43;;;;;;;18.54;58.53;101944.00;5023662;27;97160;-51
2022/07/11 04:51:11;;;;;;;3.97;1.80;;;;;;;18.56;58.41;101947.78;5026576;27;97368;-52
2022/07/11 04:53:37;;;;;;;1.40;1.30;;;;;;;18.58;58.49;101947.28;5024708;27;97198;-51
2022/07/11 04:56:02;;;;;;;1.93;1.80;;;;;;;18.60;58.62;101947.50;5026512;27;97354;-51
2022/07/11 04:58:32;;;;;;;6.90;1.63;;;;;;;18.62;58.64;101950.53;5025337;27;96862;-52
2022/07/11 05:00:57;;;;;;;1.50;1.40;;;;;;;18.65;58.51;101944.66;5024031;27;96798;-51
2022/07/11 05:03:22;;;;;;;1.50;1.40;;;;;;;18.70;58.76;101943.13;5026687;27;97214;-52
2022/07/11 05:05:48;;;;;;;1.70;1.60;;;;;;;18.75;58.72;101947.16;5023690;27;97517;-50
2022/07/11 05:08:13;;;;;;;2.40;1.63;;;;;;;18.78;58.65;101940.53;5026582;27;96908;-50
2022/07/11 05:10:38;;;;;;;1.73;1.37;;;;;;;18.85;58.56;101951.88;5027569;27;97082;-50
2022/07/11 05:13:05;;;;;;;2.20;2.00;;;;;;;18.90;58.54;101948.28;5023843;27;97042;-50
2022/07/11 05:15:30;;;;;;;2.07;1.73;;;;;;;18.97;58.49;101942.16;5024013;27;97657;-50
2022/07/11 05:17:56;;;;;;;5.53;1.80;;;;;;;19.02;58.32;101951.75;5025187;27;97695;-50
2022/07/11 05:20:21;;;;;;;3.07;2.00;;;;;;;19.04;58.63;101949.22;5027082;27;97625;-54
2022/07/11 05:22:47;;;;;;;1.40;1.30;;;;;;;19.08;58.66;101953.22;5026210;27;97012;-53
2022/07/11 05:25:12;;;;;;;2.70;1.70;;;;;;;19.11;58.70;101960.53;5021866;27;97533;-51
2022/07/11 05:27:37;;;;;;;2.20;1.60;;;;;;;19.16;58.73;101959.75;5024658;27;98153;-51
2022/07/11 05:30:03;;;;;;;2.37;2.00;;;;;;;19.16;58.63;101968.13;5027335;27;97228;-51
2022/07/11 05:32:29;;;;;;;2.67;1.60;;;;;;;19.20;58.62;101965.03;5023223;27;96864;-51
2022/07/11 05:34:58;;;;;;;2.67;1.80;;;;;;;19.20;58.63;101967.81;5024879;27;97309;-50
2022/07/11 05:37:23;;;;;;;2.70;1.73;;;;;;;19.22;58.67;101976.44;5017235;28;98194;-50
2022/07/11 05:39:50;;;;;;;2.27;1.10;;;;;;;19.25;58.72;101978.94;5023635;27;97230;-52
2022/07/11 05:42:15;;;;;;;3.83;1.57;;;;;;;19.24;58.65;101971.84;5019142;27;96891;-51
2022/07/11 05:44:41;;;;;;;1.57;1.13;;;;;;;19.21;58.75;101978.47;5023133;27;97546;-52
2022/07/11 05:47:06;;;;;;;4.30;1.57;;;;;;;19.23;58.82;101975.91;5024743;27;96908;-50
2022/07/11 05:49:32;;;;;;;4.43;2.13;;;;;;;19.22;58.86;101974.41;5026807;27;97360;-51
2022/07/11 05:51:58;;;;;;;1.30;1.20;;;;;;;19.24;58.79;101971.84;5026470;27;97220;-51
2022/07/11 05:54:23;;;;;;;1.60;1.50;;;;;;;19.31;58.71;101981.66;5023536;27;97371;-49
2022/07/11 05:56:48;;;;;;;1.90;1.47;;;;;;;19.31;58.59;101988.03;5027115;27;97033;-50
2022/07/11 05:59:14;;;;;;;2.47;1.30;;;;;;;19.32;58.65;101978.38;5021004;27;97032;-51
2022/07/11 06:01:40;;;;;;;1.43;1.33;;;;;;;19.39;58.63;101989.00;5026401;27;97152;-51
2022/07/11 06:04:05;;;;;;;1.47;1.30;;;;;;;19.42;58.49;101987.94;5025651;27;96894;-50
2022/07/11 06:06:31;;;;;;;1.33;0.87;;;;;;;19.46;58.49;101986.91;5021386;28;98384;-51
2022/07/11 06:08:57;;;;;;;1.30;1.07;;;;;;;19.53;58.47;101986.34;5023763;27;98199;-51
2022/07/11 06:11:22;;;;;;;1.47;1.10;;;;;;;19.55;58.39;101990.09;5022961;27;97410;-50
2022/07/11 06:13:51;;;;;;;1.83;1.47;;;;;;;19.57;58.46;101989.59;5025689;27;97159;-50
2022/07/11 06:16:17;;;;;;;1.10;1.00;;;;;;;19.59;58.52;101990.59;5022399;27;97670;-50
2022/07/11 06:18:43;;;;;;;1.67;1.57;;;;;;;19.62;58.44;101988.75;5009744;27;96786;-51
2022/07/11 06:21:08;;;;;;;1.87;1.33;;;;;;;19.67;58.28;101985.94;5017157;27;98054;-50
2022/07/11 06:23:34;;;;;;;1.87;1.30;;;;;;;19.67;58.58;101979.59;5014787;27;96829;-51
2022/07/11 06:26:01;;;;;;;2.40;1.20;;;;;;;19.67;58.46;101980.34;5015368;27;97332;-50
2022/07/11 06:28:26;;;;;;;2.30;1.37;;;;;;;19.70;58.42;101979.28;5015791;27;97010;-50
2022/07/11 06:30:52;;;;;;;2.27;1.30;;;;;;;19.77;58.32;101989.09;5015775;27;97553;-50
2022/07/11 06:33:19;;;;;;;1.50;1.40;;;;;;;19.80;58.17;101976.91;5016120;27;97421;-50
2022/07/11 06:35:45;;;;;;;1.60;1.10;;;;;;;19.75;58.15;101980.50;5015300;27;98345;-50
2022/07/11 06:38:11;;;;;;;3.77;2.10;;;;;;;19.72;58.24;101989.94;5015264;27;97031;-52
2022/07/11 06:40:37;;;;;;;1.60;1.30;;;;;;;19.77;58.16;101986.31;5014760;27;97732;-51
2022/07/11 06:43:02;;;;;;;3.00;1.40;;;;;;;19.87;58.40;101987.50;5019071;27;97167;-50
2022/07/11 06:45:28;;;;;;;1.77;1.03;;;;;;;20.02;58.37;101979.44;5017590;27;97199;-49
2022/07/11 06:47:53;;;;;;;1.07;1.00;;;;;;;20.06;57.83;101988.28;5022353;27;97119;-50
2022/07/11 06:50:19;;;;;;;3.93;1.20;;;;;;;19.99;57.78;101986.84;5023840;27;97156;-51
2022/07/11 06:52:46;;;;;;;1.93;0.90;;;;;;;19.90;57.93;101984.41;5024319;27;97364;-51
2022/07/11 06:55:12;;;;;;;1.70;0.97;;;;;;;19.80;58.03;101985.28;5020505;27;98479;-51
2022/07/11 06:57:37;;;;;;;1.03;1.03;;;;;;;19.83;58.13;101989.81;5025606;27;97142;-52
2022/07/11 07:00:04;;;;;;;1.20;1.10;;;;;;;19.79;57.82;101983.78;5025228;27;97316;-50
2022/07/11 07:02:30;;;;;;;1.30;1.00;;;;;;;19.83;57.89;101987.03;5023085;27;98597;-51
2022/07/11 07:04:58;;;;;;;0.90;0.90;;;;;;;19.92;57.87;101989.47;5025549;27;97107;-51
2022/07/11 07:07:23;;;;;;;2.07;1.10;;;;;;;20.03;57.76;101989.31;5024409;28;97064;-51
2022/07/11 07:09:49;;;;;;;1.37;0.80;;;;;;;20.08;57.80;101989.25;5023622;27;97159;-51
2022/07/11 07:12:14;;;;;;;1.23;1.00;;;;;;;20.18;57.59;101990.41;5024054;27;97491;-50
2022/07/11 07:14:41;;;;;;;0.70;0.70;;;;;;;20.31;57.64;101994.63;5023409;27;96933;-52
2022/07/11 07:17:06;;;;;;;1.20;0.80;;;;;;;20.33;57.44;101992.03;5022694;27;97213;-52
2022/07/11 07:19:32;;;;;;;2.10;0.80;;;;;;;20.37;57.15;102001.63;5027069;27;97090;-51
2022/07/11 07:21:57;;;;;;;0.93;0.90;;;;;;;20.38;57.02;101994.75;5026145;27;97427;-51
2022/07/11 07:24:22;;;;;;;1.07;0.60;;;;;;;20.34;56.82;102001.91;5027281;27;119044;-51
2022/07/11 07:26:47;;;;;;;1.13;0.90;;;;;;;20.24;57.19;101998.75;5029139;27;97011;-51
2022/07/11 07:29:13;;;;;;;0.90;0.80;;;;;;;20.19;57.12;102000.31;5028642;27;96743;-50
2022/07/11 07:31:38;;;;;;;1.20;1.00;;;;;;;20.11;57.30;102004.22;5026031;27;96857;-49
2022/07/11 07:34:04;;;;;;;1.63;0.90;;;;;;;20.01;57.63;102009.41;5026445;27;97729;-50
2022/07/11 07:36:30;;;;;;;1.13;0.90;;;;;;;19.92;57.96;102015.34;5024236;27;96754;-51
2022/07/11 07:38:55;;;;;;;0.97;0.87;;;;;;;19.89;58.19;102007.28;5027369;27;96957;-51
2022/07/11 07:41:21;;;;;;;1.90;0.90;;;;;;;19.87;58.09;102012.63;5028598;27;97245;-50
2022/07/11 07:43:48;;;;;;;1.20;0.80;;;;;;;19.85;58.45;102010.38;5027825;27;97093;-52
2022/07/11 07:46:14;;;;;;;1.20;1.00;;;;;;;19.88;58.25;102016.94;5027027;27;97354;-53
2022/07/11 07:48:39;;;;;;;1.13;0.90;;;;;;;19.89;58.45;102018.44;5028852;27;97126;-50
2022/07/11 07:51:05;;;;;;;0.90;0.90;;;;;;;19.91;58.36;102018.69;5027922;27;97348;-51
2022/07/11 07:53:30;;;;;;;0.90;0.90;;;;;;;19.94;58.44;102021.16;5025904;27;96961;-50
2022/07/11 07:55:55;;;;;;;1.83;0.80;;;;;;;20.01;58.44;102019.81;5025524;27;105651;-50
2022/07/11 07:58:21;;;;;;;5.67;1.37;;;;;;;20.00;58.32;102027.47;5027800;27;97340;-51
2022/07/11 08:03:31;;;;;;;2.53;1.03;;;;;;;19.83;58.70;102026.88;5028167;27;97099;-50
2022/07/11 08:05:56;;;;;;;0.97;0.97;;;;;;;19.79;58.80;102022.88;5027900;27;96939;-51
2022/07/11 08:08:22;;;;;;;0.60;0.60;;;;;;;19.78;58.82;102035.31;5026662;27;97195;-50
2022/07/11 08:10:47;;;;;;;1.57;0.67;;;;;;;19.71;58.99;102030.31;5028220;27;101937;-50
2022/07/11 08:13:12;;;;;;;1.10;0.60;;;;;;;19.63;58.95;102038.53;5028126;27;97254;-50
2022/07/11 08:15:38;;;;;;;2.77;0.50;;;;;;;19.47;59.05;102045.00;5027545;27;97330;-50
2022/07/11 08:18:03;;;;;;;1.47;0.60;;;;;;;19.37;59.08;102038.25;5028173;27;97262;-50
2022/07/11 08:20:29;;;;;;;1.63;0.50;;;;;;;19.28;59.16;102044.13;5027735;27;97430;-52
2022/07/11 08:23:02;;;;;;;1.20;0.50;;;;;;;19.26;59.62;102047.41;5028355;27;106898;-50
2022/07/11 08:25:27;;;;;;;0.60;0.43;;;;;;;19.25;59.47;102045.16;5028414;27;97348;-51
2022/07/11 08:27:53;;;;;;;0.50;0.43;;;;;;;19.27;59.61;102045.38;5025570;27;97145;-50
2022/07/11 08:30:18;;;;;;;0.60;0.40;;;;;;;19.36;59.59;102048.66;5026420;27;100152;-51
2022/07/11 08:32:44;;;;;;;0.80;0.40;;;;;;;19.47;59.40;102052.63;5024480;27;98947;-49
2022/07/11 08:35:11;;;;;;;0.67;0.50;;;;;;;19.53;59.42;102047.75;5028683;27;97312;-50
2022/07/11 08:37:36;;;;;;;1.47;0.53;;;;;;;19.63;59.29;102051.72;5027605;27;97093;-50
2022/07/11 08:40:03;;;;;;;0.60;0.50;;;;;;;19.69;59.61;102060.81;5027469;27;98034;-50
2022/07/11 08:42:30;;;;;;;0.63;0.40;;;;;;;19.80;59.62;102055.09;5027686;27;97724;-51
2022/07/11 08:44:57;;;;;;;0.90;0.50;;;;;;;19.87;59.41;102057.31;5026162;27;96959;-50
2022/07/11 08:47:24;;;;;;;1.53;0.60;;;;;;;19.96;59.40;102057.72;5027105;27;97192;-51
2022/07/11 08:49:51;;;;;;;0.60;0.60;;;;;;;20.00;59.21;102054.66;5028665;27;97426;-50
2022/07/11 08:52:19;;;;;;;1.77;0.40;;;;;;;20.14;59.12;102059.06;5024736;27;97057;-51
2022/07/11 08:54:45;;;;;;;1.53;0.60;;;;;;;20.30;59.05;102065.75;5027275;27;97414;-50
2022/07/11 08:57:11;;;;;;;0.50;0.40;;;;;;;20.39;58.73;102057.03;5023272;27;97013;-51
2022/07/11 08:59:41;;;;;;;0.50;0.43;;;;;;;20.40;58.88;102045.31;5025887;27;96911;-49
2022/07/11 09:02:08;;;;;;;0.60;0.43;;;;;;;20.41;58.98;102049.63;5025590;27;97185;-50
2022/07/11 09:04:34;;;;;;;0.50;0.40;;;;;;;20.41;58.98;102048.84;5026792;27;97044;-50
2022/07/11 09:07:00;;;;;;;1.10;0.50;;;;;;;20.51;58.84;102039.56;5027503;27;97233;-51
2022/07/11 09:09:26;;;;;;;0.50;0.40;;;;;;;20.69;58.68;102046.44;5024813;27;97043;-49
2022/07/11 09:11:54;;;;;;;0.70;0.50;;;;;;;20.83;58.41;102051.59;5027217;27;97209;-51
2022/07/11 09:14:30;;;;;;;0.60;0.50;;;;;;;20.97;58.19;102046.81;5026477;27;96975;-50
2022/07/11 09:16:59;;;;;;;0.90;0.40;;;;;;;21.05;57.89;102041.38;5024512;27;96777;-50
2022/07/11 09:19:30;;;;;;;0.60;0.57;;;;;;;21.10;57.93;102046.16;5024627;27;96946;-49
2022/07/11 09:27:48;;;;;;;0.50;0.43;;;;;;;21.21;57.79;102048.78;5019766;27;97269;-49
2022/07/11 09:30:24;;;;;;;0.70;0.40;;;;;;;21.20;57.90;102050.06;5025284;27;97122;-49
2022/07/11 09:33:00;;;;;;;0.60;0.50;;;;;;;21.29;57.91;102038.44;5025268;27;97264;-50
2022/07/11 09:35:32;;;;;;;0.90;0.40;;;;;;;21.46;58.05;102036.13;5019544;27;96689;-49
2022/07/11 09:37:57;;;;;;;0.60;0.50;;;;;;;21.65;57.79;102037.56;5025637;27;97165;-51
2022/07/11 09:40:23;;;;;;;0.70;0.70;;;;;;;21.85;57.18;102038.25;5025496;27;96983;-51
2022/07/11 09:42:51;;;;;;;0.60;0.50;;;;;;;21.97;57.11;102040.31;5023591;27;97374;-51
2022/07/11 09:45:18;;;;;;;0.60;0.60;;;;;;;21.89;56.90;102036.63;5021968;27;97385;-51
2022/07/11 09:47:52;;;;;;;0.60;0.50;;;;;;;21.82;56.92;102030.91;5027423;27;96759;-50
2022/07/11 09:50:23;;;;;;;1.83;0.40;;;;;;;21.88;56.78;102032.34;5024442;27;100563;-51
2022/07/11 09:53:11;;;;;;;0.90;0.50;;;;;;;21.98;56.86;102036.22;5027336;27;97299;-50
2022/07/11 09:55:38;;;;;;;0.73;0.50;;;;;;;22.03;56.75;102034.59;5017650;27;98094;-50
2022/07/11 09:58:08;;;;;;;0.60;0.50;;;;;;;22.01;56.58;102035.16;5023911;27;97320;-51
2022/07/11 10:00:35;;;;;;;0.60;0.47;;;;;;;22.02;56.41;102036.63;5022363;27;97163;-50
2022/07/11 10:03:00;;;;;;;0.60;0.40;;;;;;;22.03;56.57;102038.16;5023375;27;97237;-49
2022/07/11 10:05:26;;;;;;;0.60;0.40;;;;;;;22.07;56.40;102041.38;5024202;27;96948;-50
2022/07/11 10:07:52;;;;;;;3.27;0.43;;;;;;;22.13;56.48;102047.63;5026482;27;97525;-50
2022/07/11 10:10:17;;;;;;;0.50;0.40;;;;;;;22.20;56.25;102044.19;5014078;27;97903;-50
2022/07/11 10:12:46;;;;;;;0.60;0.40;;;;;;;22.19;55.75;102039.84;5024682;27;97155;-50
2022/07/11 10:15:16;;;;;;;0.53;0.40;;;;;;;22.23;55.80;102040.31;5010321;27;97387;-51
2022/07/11 10:18:02;;;;;;;0.59;0.30;;;;;;;22.27;54.96;102034.38;4515898;27;10001472;-52
2022/07/11 10:20:42;;;;;;;1.77;0.47;;;;;;;22.36;55.77;102034.69;3783069;28;10098262;-54
2022/07/11 10:23:31;;;;;;;2.27;0.33;;;;;;;22.69;55.15;102024.06;5008604;28;96925;-50
2022/07/11 10:26:13;;;;;;;1.67;0.40;;;;;;;22.77;54.96;102025.63;5003461;28;97205;-51
2022/07/11 10:28:48;;;;;;;0.50;0.40;;;;;;;22.71;54.70;102029.88;5003978;28;97266;-50
2022/07/11 10:31:23;;;;;;;0.60;0.40;;;;;;;22.65;54.71;102024.38;5005473;28;97183;-50
2022/07/11 10:34:04;;;;;;;0.53;0.33;;;;;;;22.57;54.61;102025.56;5005034;28;96895;-52
2022/07/11 10:36:39;;;;;;;0.50;0.40;;;;;;;22.55;55.35;102028.16;5002874;28;96983;-50
2022/07/11 10:39:21;;;;;;;0.50;0.30;;;;;;;22.58;54.85;102021.47;4992189;28;97739;-52
2022/07/11 10:41:46;;;;;;;3.07;0.80;;;;;;;22.60;55.12;102030.88;4998231;28;97075;-50
2022/07/11 10:44:12;;;;;;;0.53;0.40;;;;;;;22.60;54.96;102027.31;4996648;28;97343;-52
2022/07/11 10:46:37;;;;;;;0.60;0.50;;;;;;;22.64;54.91;102031.28;4995609;28;97039;-51
2022/07/11 10:49:09;;;;;;;0.83;0.43;;;;;;;22.70;54.81;102033.97;4994595;28;97706;-50
2022/07/11 10:51:41;;;;;;;0.60;0.40;;;;;;;22.80;54.59;102035.75;4996394;28;101661;-50
2022/07/11 10:54:36;;;;;;;0.60;0.40;;;;;;;22.95;53.63;102035.94;4995701;28;96992;-50
2022/07/11 10:57:12;;;;;;;0.60;0.50;;;;;;;23.02;54.25;102032.44;4974227;28;98414;-51
2022/07/11 10:59:59;;;;;;;0.50;0.40;;;;;;;23.02;53.76;102042.94;4996284;28;97556;-50
2022/07/11 11:02:26;;;;;;;0.60;0.40;;;;;;;23.02;54.27;102040.13;4994290;28;102060;-50
2022/07/11 11:05:00;;;;;;;2.30;0.40;;;;;;;22.96;54.24;102048.66;4998376;28;97449;-54
2022/07/11 11:07:35;;;;;;;0.53;0.40;;;;;;;22.88;54.10;102045.03;5003908;22;99014;-51
2022/07/11 11:10:05;;;;;;;0.60;0.40;;;;;;;22.89;54.43;102040.19;4972094;28;96945;-50
2022/07/11 11:12:59;;;;;;;0.50;0.40;;;;;;;22.96;53.67;102037.44;4974884;28;97025;-52
2022/07/11 11:15:54;;;;;;;0.60;0.40;;;;;;;23.02;53.73;102051.34;4977591;28;97130;-52
2022/07/11 11:18:25;;;;;;;0.70;0.50;;;;;;;23.07;54.08;102044.84;4976437;28;97297;-50
2022/07/11 11:21:00;;;;;;;0.60;0.40;;;;;;;23.13;53.57;102048.25;4975029;28;97401;-50
2022/07/11 11:23:38;;;;;;;0.83;0.40;;;;;;;23.13;53.98;102049.03;4973222;28;97258;-51
2022/07/11 11:26:17;;;;;;;0.50;0.40;;;;;;;23.22;54.02;102041.44;4976226;28;97312;-51
2022/07/11 11:28:56;;;;;;;0.60;0.50;;;;;;;23.31;53.68;102047.31;4977546;28;96985;-53
2022/07/11 11:31:22;;;;;;;0.60;0.40;;;;;;;23.41;53.63;102051.19;4977892;28;97475;-52
2022/07/11 11:33:48;;;;;;;0.60;0.40;;;;;;;23.47;53.42;102046.19;4975211;28;97401;-49